Time;durP1;ratioP1;P1;durP2;ratioP2;P2;SDS_P1;SDS_P2;PMS_P1;PMS_P2;Temp;Humidity;BMP_temperature;BMP_pressure;BME280_temperature;BME280_humidity;BME280_pressure;Samples;Min_cycle;Max_cycle;Signal;HPM_P1;HPM_P2
2024/02/05 00:00:37;;;;;;;21.45;18.83;;;;;;;29.23;79.51;101392.66;5060735;28;70171;-44
2024/02/05 00:03:09;;;;;;;30.45;20.33;;;;;;;29.27;79.56;101394.75;5063077;28;66448;-41
2024/02/05 00:05:40;;;;;;;26.80;20.23;;;;;;;29.31;73.21;101396.06;5059251;28;68923;-41
2024/02/05 00:08:11;;;;;;;20.85;17.20;;;;;;;29.30;72.54;101405.16;5062397;28;66378;-41
2024/02/05 00:10:42;;;;;;;17.58;15.95;;;;;;;29.30;72.15;101402.47;5051431;28;70020;-41
2024/02/05 00:13:13;;;;;;;17.50;15.45;;;;;;;29.30;72.07;101405.16;5032968;28;64820;-41
2024/02/05 00:15:45;;;;;;;15.55;14.18;;;;;;;29.32;71.81;101399.59;5048848;28;69784;-41
2024/02/05 00:18:20;;;;;;;14.55;13.23;;;;;;;29.35;71.34;101410.81;5049776;28;65503;-41
2024/02/05 00:20:52;;;;;;;15.57;13.85;;;;;;;29.10;71.75;101355.56;5050488;28;69705;-42
2024/02/05 00:23:22;;;;;;;14.48;12.85;;;;;;;29.24;71.56;101384.34;5052552;28;66101;-42
2024/02/05 00:25:53;;;;;;;14.07;12.77;;;;;;;29.47;71.85;101424.63;5056827;28;70142;-42
2024/02/05 00:28:24;;;;;;;12.75;11.70;;;;;;;29.50;71.34;101420.69;5049203;28;66708;-41
2024/02/05 00:30:54;;;;;;;12.80;11.80;;;;;;;29.49;71.37;101424.44;5054731;28;69502;-41
2024/02/05 00:33:25;;;;;;;12.50;11.38;;;;;;;29.54;71.55;101430.09;5053940;28;66560;-41
2024/02/05 00:35:56;;;;;;;12.70;11.60;;;;;;;29.56;71.88;101425.28;5042381;28;70056;-41
2024/02/05 00:38:27;;;;;;;11.07;10.38;;;;;;;29.55;71.44;101429.88;5044377;28;66085;-41
2024/02/05 00:40:57;;;;;;;11.45;10.55;;;;;;;29.60;72.13;101442.81;5050305;28;70593;-42
2024/02/05 00:43:30;;;;;;;11.77;10.70;;;;;;;29.60;71.67;101445.50;5048618;28;66625;-41
2024/02/05 00:46:01;;;;;;;11.15;10.07;;;;;;;29.61;71.71;101445.31;5055480;28;70047;-42
2024/02/05 00:48:33;;;;;;;10.00;9.27;;;;;;;29.62;71.90;101448.84;5053920;28;66131;-42
2024/02/05 00:51:04;;;;;;;10.35;9.40;;;;;;;29.57;72.18;101443.19;5048666;28;69302;-41
2024/02/05 00:53:34;;;;;;;10.43;9.32;;;;;;;29.66;71.85;101452.84;5042006;28;66531;-42
2024/02/05 00:56:05;;;;;;;11.32;9.60;;;;;;;29.68;72.02;101456.19;5050987;28;69911;-42
2024/02/05 00:58:36;;;;;;;9.23;8.68;;;;;;;29.70;72.11;101462.25;5046077;28;66255;-41
2024/02/05 01:01:07;;;;;;;10.65;9.55;;;;;;;29.70;72.42;101456.84;5050502;28;70306;-41
2024/02/05 01:03:38;;;;;;;9.23;8.35;;;;;;;29.67;72.27;101465.34;5023070;28;64329;-42
2024/02/05 01:06:09;;;;;;;10.40;9.57;;;;;;;29.74;72.21;101470.78;5061353;28;70554;-42
2024/02/05 01:08:41;;;;;;;9.85;9.05;;;;;;;29.74;72.51;101476.19;5061006;28;66044;-42
2024/02/05 01:11:11;;;;;;;10.15;9.25;;;;;;;29.74;72.11;101482.44;5061065;28;70530;-41
2024/02/05 01:13:42;;;;;;;9.30;8.55;;;;;;;29.74;72.04;101477.03;5061558;28;66754;-42
2024/02/05 01:16:13;;;;;;;9.07;8.48;;;;;;;29.79;71.99;101485.38;5061002;28;70709;-41
2024/02/05 01:18:44;;;;;;;9.50;8.70;;;;;;;29.79;72.33;101485.38;5061804;28;67393;-42
2024/02/05 01:21:15;;;;;;;9.48;8.80;;;;;;;29.79;72.16;101488.09;5061510;28;69515;-42
2024/02/05 01:23:46;;;;;;;9.80;8.93;;;;;;;29.84;72.40;101503.72;5060740;28;66750;-41
2024/02/05 01:26:17;;;;;;;10.30;9.40;;;;;;;29.82;72.67;101501.22;5061730;28;70266;-42
2024/02/05 01:28:47;;;;;;;9.88;9.10;;;;;;;29.84;72.63;101504.56;5061275;28;66378;-42
2024/02/05 01:31:18;;;;;;;9.48;8.77;;;;;;;29.71;72.62;101482.84;5057721;28;70130;-41
2024/02/05 01:33:49;;;;;;;10.48;9.52;;;;;;;29.67;72.46;101470.75;5061002;28;66090;-42
2024/02/05 01:36:20;;;;;;;9.63;8.93;;;;;;;29.83;72.74;101510.97;5050286;28;69803;-42
2024/02/05 01:38:51;;;;;;;9.27;8.55;;;;;;;29.91;72.20;101515.41;5041357;28;66613;-42
2024/02/05 01:41:22;;;;;;;9.75;9.07;;;;;;;29.91;72.18;101514.59;5055892;28;70368;-42
2024/02/05 01:43:53;;;;;;;;;;;;;;;29.61;74.25;101525.56;5050921;28;65853;-41
2024/02/05 01:46:25;;;;;;;8.10;7.45;;;;;;;29.87;72.93;101514.16;5054565;28;69989;-42
2024/02/05 01:49:07;;;;;;;8.60;8.10;;;;;;;29.76;72.68;101507.41;5050873;28;66163;-41
2024/02/05 01:51:43;;;;;;;8.98;8.45;;;;;;;29.49;72.39;101448.75;5056595;28;69727;-41
2024/02/05 01:54:16;;;;;;;10.10;9.20;;;;;;;29.55;72.38;101461.47;5044709;28;66793;-41
2024/02/05 01:56:49;;;;;;;8.90;8.30;;;;;;;29.87;72.75;101497.94;5048716;28;69679;-41
2024/02/05 01:59:21;;;;;;;8.60;8.02;;;;;;;29.98;72.38;101520.88;5052169;28;67182;-41
2024/02/05 02:01:52;;;;;;;8.20;7.80;;;;;;;29.97;72.66;101527.31;5049374;28;69261;-41
2024/02/05 02:04:24;;;;;;;8.87;8.17;;;;;;;29.89;72.75;101505.81;5061174;28;66663;-42
2024/02/05 02:06:54;;;;;;;7.90;7.50;;;;;;;29.99;72.15;101522.53;5061369;28;69643;-42
2024/02/05 02:09:27;;;;;;;8.48;7.85;;;;;;;30.01;72.12;101520.47;5048767;28;66407;-41
2024/02/05 02:11:57;;;;;;;;;;;;;;;29.69;73.90;101514.63;5031369;28;69964;-42
2024/02/05 02:14:27;;;;;;;7.78;7.28;;;;;;;29.98;72.52;101515.47;5055660;28;65668;-41
2024/02/05 02:16:58;;;;;;;7.78;7.28;;;;;;;29.99;72.63;101512.53;5060596;28;70017;-42
2024/02/05 02:19:45;;;;;;;7.97;7.43;;;;;;;29.65;72.57;101451.19;5059772;28;66686;-41
2024/02/05 02:23:01;;;;;;;8.23;7.63;;;;;;;30.01;72.30;101513.19;5052609;28;69430;-41
2024/02/05 02:25:32;;;;;;;7.20;6.70;;;;;;;30.04;72.10;101514.66;4998587;28;66592;-41
2024/02/05 02:28:03;;;;;;;7.75;7.35;;;;;;;30.07;72.57;101508.84;4997930;28;70239;-42
2024/02/05 02:30:36;;;;;;;8.40;7.80;;;;;;;30.09;72.47;101509.50;5023680;28;66398;-41
2024/02/05 02:33:23;;;;;;;8.32;7.82;;;;;;;30.11;72.55;101510.09;5060679;28;70073;-41
2024/02/05 02:36:02;;;;;;;7.47;7.07;;;;;;;30.12;72.30;101517.22;5060243;28;66092;-42
2024/02/05 02:38:51;;;;;;;7.40;7.00;;;;;;;29.71;72.43;101438.75;5059451;28;69500;-41
2024/02/05 02:41:26;;;;;;;8.25;7.55;;;;;;;30.14;72.25;101509.72;5062245;28;66304;-41
2024/02/05 02:44:02;;;;;;;7.38;6.90;;;;;;;30.18;72.28;101511.00;5057523;28;70427;-42
2024/02/05 02:46:33;;;;;;;8.18;7.57;;;;;;;29.91;72.37;101455.91;5059126;28;66473;-44
2024/02/05 02:49:04;;;;;;;8.18;7.55;;;;;;;30.16;71.97;101491.41;5060139;28;70227;-41
2024/02/05 02:51:35;;;;;;;8.00;7.50;;;;;;;30.25;71.92;101503.75;5059874;28;66181;-41
2024/02/05 02:54:06;;;;;;;7.87;7.43;;;;;;;30.24;72.05;101499.38;5043217;28;70309;-42
2024/02/05 02:56:38;;;;;;;8.13;7.63;;;;;;;30.25;72.27;101500.22;5061661;28;65141;-41
2024/02/05 02:59:10;;;;;;;;;;;;;;;29.99;73.48;101500.91;5058826;28;70815;-41
2024/02/05 03:01:40;;;;;;;7.70;7.00;;;;;;;30.24;72.20;101498.56;5061769;28;66402;-42
2024/02/05 03:04:11;;;;;;;6.83;6.47;;;;;;;30.30;72.17;101510.44;5062087;28;70632;-41
2024/02/05 03:06:42;;;;;;;8.02;7.45;;;;;;;30.24;72.36;101488.56;5060587;28;66419;-42
2024/02/05 03:09:14;;;;;;;7.30;6.85;;;;;;;30.34;72.17;101509.00;5061864;28;71374;-43
2024/02/05 03:11:45;;;;;;;7.40;7.00;;;;;;;30.35;72.40;101502.56;5060433;28;66153;-42
2024/02/05 03:14:16;;;;;;;7.67;7.17;;;;;;;30.39;72.22;101501.09;5060790;28;70294;-42
2024/02/05 03:16:47;;;;;;;7.13;6.70;;;;;;;30.40;72.19;101498.22;5057138;28;66714;-42
2024/02/05 03:19:18;;;;;;;7.13;6.63;;;;;;;30.44;72.26;101493.22;5055686;28;70167;-42
2024/02/05 03:21:49;;;;;;;8.30;7.70;;;;;;;30.44;72.24;101487.81;5059989;28;66789;-42
2024/02/05 03:24:19;;;;;;;7.05;6.55;;;;;;;30.42;71.79;101479.91;5061087;28;69839;-42
2024/02/05 03:26:50;;;;;;;7.43;7.03;;;;;;;30.34;72.14;101454.88;5045950;28;65627;-41
2024/02/05 03:29:21;;;;;;;7.10;6.70;;;;;;;30.49;72.09;101474.50;5041393;28;70642;-41
2024/02/05 03:31:53;;;;;;;7.30;6.90;;;;;;;30.55;71.82;101480.97;5060070;28;66439;-43
2024/02/05 03:34:24;;;;;;;8.27;7.47;;;;;;;30.54;71.56;101471.19;5059481;28;69455;-43
2024/02/05 03:36:55;;;;;;;;;;;;;;;30.29;73.15;101466.31;5057219;28;65577;-41
2024/02/05 03:39:26;;;;;;;6.50;6.10;;;;;;;30.49;71.80;101452.84;5036637;28;70500;-41
2024/02/05 03:41:57;;;;;;;7.47;6.97;;;;;;;30.48;72.04;101434.94;5047978;28;66814;-41
2024/02/05 03:44:28;;;;;;;7.40;6.80;;;;;;;30.53;71.71;101437.84;5038935;28;70201;-42
2024/02/05 03:47:00;;;;;;;7.03;6.43;;;;;;;30.64;71.28;101453.50;5040399;28;66374;-42
2024/02/05 03:49:31;;;;;;;7.05;6.55;;;;;;;30.68;71.83;101457.47;5052735;28;69203;-42
2024/02/05 03:52:02;;;;;;;6.90;6.55;;;;;;;30.69;71.92;101451.00;5051928;28;65501;-42
2024/02/05 03:54:34;;;;;;;8.23;7.65;;;;;;;30.73;71.70;101444.16;5053792;28;70064;-42
2024/02/05 03:57:05;;;;;;;7.40;6.90;;;;;;;30.76;71.70;101436.63;5057963;28;66095;-41
2024/02/05 03:59:35;;;;;;;7.55;7.05;;;;;;;30.75;71.53;101434.97;5060604;28;70091;-43
2024/02/05 04:02:07;;;;;;;7.50;7.10;;;;;;;30.71;71.62;101418.31;5059471;28;66555;-41
2024/02/05 04:04:39;;;;;;;7.37;6.87;;;;;;;30.82;71.54;101419.63;5058930;28;70438;-41
2024/02/05 04:07:10;;;;;;;7.82;7.30;;;;;;;30.73;71.82;101400.81;5048304;28;65740;-42
2024/02/05 04:09:41;;;;;;;7.93;7.23;;;;;;;30.78;71.23;101397.47;5040966;28;70107;-40
2024/02/05 04:12:12;;;;;;;8.05;7.53;;;;;;;30.88;71.36;101408.78;5059450;28;66837;-42
2024/02/05 04:14:42;;;;;;;8.85;8.15;;;;;;;30.90;71.29;101406.69;5041449;28;69588;-42
2024/02/05 04:17:13;;;;;;;7.43;7.00;;;;;;;30.89;71.29;101398.75;5058557;28;66539;-43
2024/02/05 04:19:44;;;;;;;8.32;7.72;;;;;;;30.95;71.29;101397.94;5058468;28;70088;-41
2024/02/05 04:22:15;;;;;;;7.75;7.25;;;;;;;30.97;71.17;101393.13;5059231;28;66182;-41
2024/02/05 04:24:45;;;;;;;7.45;6.95;;;;;;;31.00;71.40;101395.44;5055913;28;69862;-42
2024/02/05 04:27:16;;;;;;;7.57;6.95;;;;;;;31.02;71.09;101385.22;5052937;28;67039;-41
2024/02/05 04:29:47;;;;;;;7.50;6.88;;;;;;;31.04;71.35;101380.44;5058723;28;71190;-42
2024/02/05 04:32:18;;;;;;;7.93;7.43;;;;;;;31.06;71.38;101372.91;5057756;28;65629;-41
2024/02/05 04:34:48;;;;;;;9.07;8.20;;;;;;;31.07;71.30;101371.88;5058211;28;70331;-42
2024/02/05 04:37:20;;;;;;;8.35;7.75;;;;;;;31.08;71.30;101365.41;5058392;28;66150;-41
2024/02/05 04:39:51;;;;;;;8.30;7.68;;;;;;;31.07;70.77;101352.91;5056984;28;70506;-41
2024/02/05 04:42:22;;;;;;;7.85;7.35;;;;;;;31.14;70.91;101351.00;5062970;28;66746;-42
2024/02/05 04:44:53;;;;;;;8.03;7.53;;;;;;;31.15;70.75;101347.28;5061751;28;69852;-41
2024/02/05 04:47:24;;;;;;;8.25;7.68;;;;;;;31.14;71.00;101332.03;5059195;28;65370;-41
2024/02/05 04:49:54;;;;;;;8.43;7.82;;;;;;;31.19;70.77;101328.72;5062429;28;70228;-42
2024/02/05 04:52:25;;;;;;;7.78;7.28;;;;;;;31.24;71.11;101319.97;5061318;28;67552;-42
2024/02/05 04:54:56;;;;;;;7.65;7.18;;;;;;;31.27;70.97;101314.09;5060958;28;70308;-42
2024/02/05 04:57:28;;;;;;;8.05;7.32;;;;;;;31.28;70.78;101299.50;5061876;28;65764;-42
2024/02/05 04:59:59;;;;;;;8.40;7.78;;;;;;;31.28;71.07;101297.63;5053713;28;70705;-43
2024/02/05 05:02:30;;;;;;;7.93;7.40;;;;;;;31.33;70.68;101291.56;5058320;28;66614;-41
2024/02/05 05:05:01;;;;;;;7.95;7.45;;;;;;;31.22;70.93;101262.41;5062299;28;70323;-42
2024/02/05 05:07:32;;;;;;;8.60;7.88;;;;;;;31.35;70.83;101273.22;5061771;28;66789;-41
2024/02/05 05:10:03;;;;;;;8.52;7.97;;;;;;;31.37;71.02;101271.13;5062231;28;69833;-41
2024/02/05 05:12:35;;;;;;;8.83;8.00;;;;;;;31.38;70.53;101267.38;5061677;28;66932;-41
2024/02/05 05:15:06;;;;;;;9.18;8.55;;;;;;;31.38;70.77;101261.97;5059215;28;70613;-42
2024/02/05 05:17:37;;;;;;;8.93;8.30;;;;;;;31.39;70.66;101253.59;5048156;28;66601;-41
2024/02/05 05:20:08;;;;;;;8.40;7.90;;;;;;;31.45;70.80;101246.50;5059858;28;69112;-42
2024/02/05 05:22:39;;;;;;;9.27;8.47;;;;;;;31.45;71.00;101241.06;5060122;28;66080;-41
2024/02/05 05:25:09;;;;;;;9.20;8.10;;;;;;;31.46;70.69;101234.63;5057912;28;69882;-42
2024/02/05 05:27:40;;;;;;;8.03;7.53;;;;;;;31.47;70.46;101238.97;5054308;28;65237;-42
2024/02/05 05:30:12;;;;;;;8.40;7.90;;;;;;;31.47;70.63;101228.13;5058403;28;70130;-43
2024/02/05 05:32:42;;;;;;;10.82;7.97;;;;;;;31.49;70.63;101231.47;5056772;28;65568;-41
2024/02/05 05:35:13;;;;;;;9.13;8.43;;;;;;;31.52;70.63;101220.19;5052990;28;70126;-41
2024/02/05 05:37:44;;;;;;;7.70;7.30;;;;;;;31.56;70.60;101224.13;5058911;28;66493;-41
2024/02/05 05:40:15;;;;;;;8.00;7.60;;;;;;;31.53;70.66;101215.59;5060014;28;70316;-41
2024/02/05 05:42:46;;;;;;;8.65;8.13;;;;;;;31.53;70.09;101199.31;5064231;28;67345;-40
2024/02/05 05:45:17;;;;;;;8.45;7.57;;;;;;;31.58;70.30;101203.03;5059156;28;70186;-41
2024/02/05 05:47:50;;;;;;;8.60;8.00;;;;;;;31.60;70.79;101203.66;5038029;28;65916;-42
2024/02/05 05:50:22;;;;;;;8.47;7.77;;;;;;;31.61;70.18;101191.75;5043247;28;69306;-46
2024/02/05 05:52:54;;;;;;;9.15;8.55;;;;;;;31.65;70.65;101183.19;5060727;28;65261;-42
2024/02/05 05:55:25;;;;;;;8.10;7.60;;;;;;;31.60;70.48;101184.69;5043376;28;69948;-43
2024/02/05 05:57:55;;;;;;;8.30;7.80;;;;;;;31.63;70.11;101185.31;5060273;28;66988;-42
2024/02/05 06:00:26;;;;;;;8.43;7.82;;;;;;;31.68;70.29;101186.31;5062595;28;69744;-44
2024/02/05 06:02:58;;;;;;;8.32;7.72;;;;;;;31.70;70.36;101177.94;5063067;28;65489;-40
2024/02/05 06:05:29;;;;;;;8.77;8.13;;;;;;;31.70;69.89;101164.38;5047710;28;69942;-42
2024/02/05 06:08:00;;;;;;;9.15;8.48;;;;;;;31.74;69.93;101168.34;5049080;28;66221;-44
2024/02/05 06:10:31;;;;;;;8.40;7.82;;;;;;;31.76;70.05;101148.09;5061568;28;69676;-44
2024/02/05 06:13:03;;;;;;;9.40;8.50;;;;;;;31.80;69.93;101145.75;5060436;28;65944;-43
2024/02/05 06:15:34;;;;;;;8.95;8.25;;;;;;;31.80;69.64;101137.63;5062202;28;69825;-43
2024/02/05 06:18:05;;;;;;;8.55;8.05;;;;;;;31.84;69.83;101141.53;5060272;28;66122;-43
2024/02/05 06:20:35;;;;;;;8.57;7.97;;;;;;;31.77;69.96;101116.34;5060515;28;70533;-44
2024/02/05 06:23:07;;;;;;;9.30;8.57;;;;;;;31.88;70.12;101120.25;5061250;28;66137;-43
2024/02/05 06:25:38;;;;;;;8.43;7.82;;;;;;;31.90;69.74;101124.41;5049830;28;69429;-42
2024/02/05 06:28:12;;;;;;;8.57;7.97;;;;;;;31.93;70.08;101123.97;5056115;28;66683;-42
2024/02/05 06:30:49;;;;;;;8.93;8.43;;;;;;;31.96;69.81;101122.72;5060106;28;70224;-41
2024/02/05 06:33:20;;;;;;;8.90;8.32;;;;;;;31.96;69.70;101115.38;5060521;28;65482;-42
2024/02/05 06:35:50;;;;;;;9.07;8.55;;;;;;;31.81;69.45;101083.13;5061842;28;70503;-42
2024/02/05 06:38:21;;;;;;;8.23;7.72;;;;;;;31.95;69.83;101105.56;5054537;28;66697;-42
2024/02/05 06:40:53;;;;;;;9.32;8.82;;;;;;;31.96;69.82;101090.97;5054582;28;69992;-41
2024/02/05 06:43:24;;;;;;;9.40;8.53;;;;;;;32.02;69.64;101100.94;5063910;28;65393;-42
2024/02/05 06:45:56;;;;;;;8.95;8.43;;;;;;;32.03;69.44;101091.72;5057418;28;70110;-42
2024/02/05 06:48:27;;;;;;;9.00;8.40;;;;;;;32.07;69.33;101085.84;5060641;28;65600;-42
2024/02/05 06:50:58;;;;;;;8.70;8.02;;;;;;;32.09;69.48;101083.75;5051556;28;71055;-42
2024/02/05 06:53:28;;;;;;;8.95;8.43;;;;;;;32.12;69.36;101075.16;5061424;28;65732;-41
2024/02/05 06:55:59;;;;;;;10.07;9.38;;;;;;;32.13;69.31;101066.81;5060151;28;70644;-41
2024/02/05 06:58:30;;;;;;;9.32;8.60;;;;;;;32.13;69.48;101063.28;5062365;28;65471;-41
2024/02/05 07:01:01;;;;;;;8.07;7.50;;;;;;;32.19;69.28;101070.50;5059566;28;69680;-42
2024/02/05 07:03:33;;;;;;;8.77;8.30;;;;;;;32.19;69.39;101065.06;5061623;28;66777;-43
2024/02/05 07:06:03;;;;;;;8.47;7.97;;;;;;;32.22;69.24;101067.34;5059578;28;70708;-42
2024/02/05 07:08:35;;;;;;;9.00;8.30;;;;;;;32.21;69.29;101055.66;5062136;28;65327;-41
2024/02/05 07:11:05;;;;;;;9.00;8.20;;;;;;;32.27;69.24;101062.06;5061155;28;69704;-41
2024/02/05 07:13:38;;;;;;;8.88;8.27;;;;;;;32.27;68.98;101059.34;5048809;28;65899;-41
2024/02/05 07:16:17;;;;;;;9.10;8.48;;;;;;;32.28;68.88;101050.97;5047967;28;70424;-44
2024/02/05 07:18:49;;;;;;;8.95;8.20;;;;;;;32.34;69.07;101051.13;5061035;28;66092;-41
2024/02/05 07:21:21;;;;;;;9.27;8.23;;;;;;;32.33;68.96;101041.34;5060672;28;69128;-42
2024/02/05 07:23:51;;;;;;;9.60;9.00;;;;;;;32.35;68.95;101048.19;5060739;28;67908;-42
2024/02/05 07:26:22;;;;;;;9.20;8.70;;;;;;;32.35;68.63;101040.06;5060852;28;69836;-41
2024/02/05 07:28:54;;;;;;;8.65;8.15;;;;;;;32.40;68.81;101037.50;5060903;28;66556;-42
2024/02/05 07:31:26;;;;;;;9.65;8.73;;;;;;;32.42;68.70;101040.78;5047931;28;70463;-42
2024/02/05 07:33:57;;;;;;;8.25;7.75;;;;;;;32.41;68.57;101033.72;5060513;28;66082;-42
2024/02/05 07:36:29;;;;;;;9.20;8.50;;;;;;;32.49;68.66;101033.44;5058500;28;70459;-42
2024/02/05 07:39:06;;;;;;;8.75;8.23;;;;;;;32.52;68.52;101025.91;5060840;28;66698;-42
2024/02/05 07:41:40;;;;;;;8.85;8.25;;;;;;;32.47;68.48;101011.09;5064080;28;69685;-43
2024/02/05 07:44:25;;;;;;;9.82;8.20;;;;;;;32.54;68.59;101016.47;5047948;28;67788;-42
2024/02/05 07:46:59;;;;;;;8.48;7.97;;;;;;;32.60;68.77;101025.59;5059193;28;69570;-41
2024/02/05 07:49:30;;;;;;;8.63;8.02;;;;;;;32.60;68.42;101015.53;5052447;28;65981;-43
2024/02/05 07:52:02;;;;;;;9.00;8.40;;;;;;;32.64;68.33;101014.00;5039052;28;70016;-43
2024/02/05 07:54:52;;;;;;;8.70;8.15;;;;;;;32.67;68.53;101012.72;5059578;28;66794;-43
2024/02/05 07:57:24;;;;;;;8.77;8.10;;;;;;;32.69;68.31;101011.44;5061079;28;69969;-42
2024/02/05 07:59:57;;;;;;;;;;;;;;;32.49;68.31;100998.13;5046518;28;66418;-40
2024/02/05 08:02:30;;;;;;;8.25;7.75;;;;;;;32.71;68.28;101003.09;5044279;28;69752;-43
2024/02/05 08:05:02;;;;;;;9.02;8.38;;;;;;;32.76;68.15;101003.19;5058680;28;67061;-41
2024/02/05 08:07:35;;;;;;;8.25;7.75;;;;;;;32.79;68.22;100997.31;5057793;28;70104;-41
2024/02/05 08:10:08;;;;;;;8.98;8.32;;;;;;;32.70;67.86;100979.66;5059825;28;66975;-42
2024/02/05 08:12:42;;;;;;;9.23;8.52;;;;;;;32.85;68.06;101001.84;5058599;28;69988;-41
2024/02/05 08:15:14;;;;;;;8.35;7.68;;;;;;;32.87;68.14;100994.25;5055625;28;66437;-41
2024/02/05 08:17:45;;;;;;;;;;;;;;;32.68;67.92;100998.06;5058085;28;70215;-41
2024/02/05 08:20:17;;;;;;;8.30;7.80;;;;;;;32.87;68.03;100988.81;5062990;28;66812;-42
2024/02/05 08:22:49;;;;;;;9.18;8.45;;;;;;;32.90;67.83;100988.38;5057429;28;70221;-42
2024/02/05 08:25:21;;;;;;;8.82;8.27;;;;;;;32.96;67.89;100999.34;5053873;28;66270;-41
2024/02/05 08:27:56;;;;;;;9.57;8.98;;;;;;;32.98;68.09;101005.41;5059762;28;70227;-40
2024/02/05 08:30:28;;;;;;;9.48;8.77;;;;;;;33.00;67.82;100998.72;5063063;28;66646;-42
2024/02/05 08:32:59;;;;;;;;;;;;;;;32.81;67.67;101005.22;5063029;28;69350;-42
2024/02/05 08:35:31;;;;;;;9.15;8.55;;;;;;;32.96;67.83;101002.06;5060385;28;66634;-41
2024/02/05 08:38:04;;;;;;;10.27;9.38;;;;;;;33.05;67.84;101011.63;5062430;28;70261;-42
2024/02/05 08:40:36;;;;;;;10.02;9.32;;;;;;;33.02;67.86;101002.03;5062211;28;65778;-45
2024/02/05 08:43:09;;;;;;;10.15;9.40;;;;;;;33.07;67.65;101001.31;5030358;28;69373;-42
2024/02/05 08:45:41;;;;;;;9.57;8.93;;;;;;;32.99;67.52;100990.75;5061418;28;65429;-41
2024/02/05 08:48:16;;;;;;;10.45;9.55;;;;;;;33.08;67.75;101005.72;5060970;28;69498;-42
2024/02/05 08:50:47;;;;;;;;;;;;;;;32.92;67.25;100999.00;5063590;28;66370;-40
2024/02/05 08:53:19;;;;;;;9.93;9.23;;;;;;;32.82;67.60;100964.25;5059446;28;69043;-41
2024/02/05 08:55:50;;;;;;;11.07;10.00;;;;;;;33.13;67.90;101009.38;5056918;28;66522;-40
2024/02/05 08:58:21;;;;;;;10.50;9.85;;;;;;;33.17;67.32;101012.47;5062237;28;70246;-41
2024/02/05 09:00:52;;;;;;;9.90;8.97;;;;;;;33.19;67.49;101017.66;5058160;28;66747;-41
2024/02/05 09:03:23;;;;;;;9.17;8.57;;;;;;;33.20;67.25;101017.41;5048191;28;70892;-41
2024/02/05 09:05:54;;;;;;;10.73;9.85;;;;;;;33.19;67.13;101013.06;5049490;28;65665;-42
2024/02/05 09:08:25;;;;;;;12.87;10.23;;;;;;;33.23;67.53;101025.09;5052712;28;70496;-42
2024/02/05 09:10:56;;;;;;;9.80;9.00;;;;;;;33.23;67.34;101027.81;5062402;28;67679;-41
2024/02/05 09:13:26;;;;;;;9.52;8.60;;;;;;;33.25;67.37;101033.88;5061528;28;70275;-41
2024/02/05 09:15:57;;;;;;;9.48;8.65;;;;;;;33.28;67.48;101038.84;5062051;28;66717;-42
2024/02/05 09:18:28;;;;;;;9.48;8.77;;;;;;;33.31;67.38;101032.94;5060600;28;70496;-41
2024/02/05 09:20:59;;;;;;;9.05;8.38;;;;;;;33.33;67.22;101038.16;5062617;28;66481;-41
2024/02/05 09:23:29;;;;;;;9.15;8.55;;;;;;;33.30;67.21;101025.84;5049917;28;70245;-42
2024/02/05 09:26:00;;;;;;;9.55;8.75;;;;;;;33.33;66.93;101030.00;5062348;28;66032;-41
2024/02/05 09:28:31;;;;;;;9.18;8.65;;;;;;;33.40;67.22;101040.75;5053218;28;70360;-41
2024/02/05 09:31:04;;;;;;;9.33;8.40;;;;;;;33.38;67.23;101039.09;5054566;28;65443;-41
2024/02/05 09:33:41;;;;;;;9.07;8.48;;;;;;;33.42;67.38;101055.78;5062843;28;69645;-42
2024/02/05 09:36:12;;;;;;;16.40;9.97;;;;;;;32.99;67.78;101017.91;5058770;28;66077;-41
2024/02/05 09:38:42;;;;;;;10.27;9.52;;;;;;;33.10;67.75;101047.09;5054299;28;70486;-41
2024/02/05 09:41:20;;;;;;;13.80;10.45;;;;;;;32.79;68.02;101008.19;5061646;28;66580;-44
2024/02/05 09:43:51;;;;;;;10.70;9.60;;;;;;;32.99;68.50;101055.97;5063956;28;70528;-42
2024/02/05 09:46:22;;;;;;;12.57;9.38;;;;;;;32.49;69.07;100987.28;5063647;28;65418;-44
2024/02/05 09:48:56;;;;;;;10.43;9.43;;;;;;;32.39;69.26;100983.41;5062343;28;70200;-42
2024/02/05 09:51:32;;;;;;;10.95;8.95;;;;;;;32.82;69.46;101062.06;5060740;28;66596;-44
2024/02/05 09:54:04;;;;;;;10.63;9.52;;;;;;;32.76;70.23;101057.53;5060694;28;70130;-41
2024/02/05 09:56:47;;;;;;;9.02;8.25;;;;;;;32.68;70.51;101061.41;5059295;28;66424;-41
2024/02/05 09:59:18;;;;;;;10.07;8.82;;;;;;;32.65;70.30;101071.88;5063081;28;69969;-44
2024/02/05 10:01:50;;;;;;;15.10;8.60;;;;;;;32.63;70.91;101074.00;5059846;28;66761;-42
2024/02/05 10:04:23;;;;;;;;;;;;;;;32.49;71.05;101074.16;5059059;28;70362;-44
2024/02/05 10:06:55;;;;;;;12.20;8.73;;;;;;;32.67;70.82;101075.19;5061855;28;66442;-42
2024/02/05 10:09:31;;;;;;;8.80;8.02;;;;;;;32.62;71.41;101088.63;5043626;28;70598;-44
2024/02/05 10:12:03;;;;;;;9.73;8.07;;;;;;;32.60;71.21;101088.06;5065809;28;64865;-44
2024/02/05 10:14:37;;;;;;;10.98;8.00;;;;;;;32.56;71.54;101084.13;5044275;28;70066;-42
2024/02/05 10:17:08;;;;;;;12.75;8.07;;;;;;;32.53;71.82;101088.09;5059206;28;65273;-41
2024/02/05 10:19:38;;;;;;;10.53;8.13;;;;;;;32.54;72.09;101091.66;5060815;28;70693;-42
2024/02/05 10:22:10;;;;;;;11.07;7.93;;;;;;;32.55;71.65;101094.16;5060656;28;65307;-42
2024/02/05 10:24:41;;;;;;;11.55;7.75;;;;;;;32.52;71.49;101091.88;5057920;28;69991;-42
2024/02/05 10:27:20;;;;;;;;;;;;;;;32.37;72.57;101097.66;5049673;28;66084;-43
2024/02/05 10:30:00;;;;;;;8.65;7.78;;;;;;;32.45;72.36;101091.91;5057998;28;69879;-42
2024/02/05 10:32:33;;;;;;;8.60;7.80;;;;;;;32.20;72.72;101056.69;5053837;28;65345;-40
2024/02/05 10:35:05;;;;;;;8.50;7.77;;;;;;;32.45;72.52;101105.50;5042088;28;69410;-41
2024/02/05 10:37:36;;;;;;;10.88;9.98;;;;;;;32.41;72.51;101098.88;5042033;28;66597;-41
2024/02/05 10:40:10;;;;;;;13.73;9.52;;;;;;;32.43;73.15;101107.63;5056287;28;70482;-42
2024/02/05 10:42:45;;;;;;;11.60;10.43;;;;;;;32.42;72.99;101105.94;5053013;27;66754;-40
2024/02/05 10:45:16;;;;;;;11.35;10.15;;;;;;;32.38;73.04;101104.75;5053121;28;70848;-42
2024/02/05 10:47:47;;;;;;;12.60;10.02;;;;;;;32.12;73.38;101067.00;5052085;28;66209;-41
2024/02/05 10:50:19;;;;;;;13.05;9.45;;;;;;;32.39;73.25;101113.72;5047593;28;69818;-41
2024/02/05 10:52:50;;;;;;;9.23;8.52;;;;;;;32.38;73.51;101104.75;5039897;28;65009;-42
2024/02/05 10:55:21;;;;;;;8.48;7.88;;;;;;;32.43;73.04;101106.78;5055128;28;70317;-42
2024/02/05 10:57:54;;;;;;;9.60;8.53;;;;;;;32.39;73.12;101122.69;5051847;28;65567;-42
2024/02/05 11:00:24;;;;;;;9.57;8.57;;;;;;;32.39;73.23;101117.25;5051116;28;69321;-42
2024/02/05 11:03:07;;;;;;;8.67;7.97;;;;;;;32.31;73.03;101109.41;5044937;28;65778;-42
2024/02/05 11:05:43;;;;;;;10.88;8.23;;;;;;;32.12;72.91;101073.25;5051771;28;69769;-41
2024/02/05 11:08:22;;;;;;;9.50;8.45;;;;;;;32.32;72.93;101104.81;5041440;28;65867;-42
2024/02/05 11:10:55;;;;;;;9.10;8.40;;;;;;;32.38;73.02;101118.31;5052183;28;70281;-40
2024/02/05 11:13:34;;;;;;;8.20;7.50;;;;;;;32.31;73.09;101114.84;5047490;28;65785;-40
2024/02/05 11:16:06;;;;;;;10.30;8.00;;;;;;;32.37;73.17;101119.38;5045630;28;69091;-42
2024/02/05 11:18:48;;;;;;;9.40;8.50;;;;;;;32.19;73.10;101111.22;5054399;28;66574;-42
2024/02/05 11:21:34;;;;;;;12.65;8.68;;;;;;;32.36;73.11;101138.59;5051935;28;43904;-43
2024/02/05 11:24:06;;;;;;;13.45;8.18;;;;;;;32.33;73.19;101139.06;5052021;28;65844;-41
2024/02/05 11:26:39;;;;;;;10.95;8.98;;;;;;;31.92;72.88;101073.47;5044558;28;70686;-42
2024/02/05 11:29:20;;;;;;;14.40;10.27;;;;;;;32.30;73.15;101143.06;5061583;28;66487;-42
2024/02/05 11:31:54;;;;;;;12.23;9.50;;;;;;;32.27;73.34;101146.22;5048295;28;69592;-42
2024/02/05 11:34:35;;;;;;;12.38;9.20;;;;;;;32.00;73.56;101108.44;5044875;28;67025;-41
2024/02/05 11:37:14;;;;;;;12.75;9.30;;;;;;;32.23;73.24;101151.28;5047813;28;70570;-41
2024/02/05 11:39:45;;;;;;;11.43;9.60;;;;;;;32.22;73.94;101160.44;5053021;28;65454;-42
2024/02/05 11:42:19;;;;;;;12.07;9.27;;;;;;;32.17;73.79;101152.13;5053755;28;70004;-42
2024/02/05 11:44:52;;;;;;;11.20;9.40;;;;;;;32.23;74.08;101163.97;5045813;28;65523;-42
2024/02/05 11:47:23;;;;;;;11.27;9.52;;;;;;;32.21;73.63;101164.22;5052249;28;70521;-41